RLY weather

Ramon Lopez Velarde Airport
Tlaltenango, Zacatecas, Mexico

Public forecast

Using degrees Celsius for public forecast. Weather courtesy of forecast.io.

METAR (pilot weather report)

Closest report is Jesús Terán Paredo International Airport, 55.0 nm (101.8 km) E. Retrieved 2019/04/24 09:40 UTC (10 minutes ago):

MMAS 240940Z 16008KT 10SM SCT250 14/M06 A3012 RMK 8/002

TAF (pilot weather forecast)

Closest forecast is Jesús Terán Paredo International Airport, 55.0 nm (101.8 km) E. Retrieved 2019/04/24 06:12 UTC (4 hours ago):

TAF TAF MMAS 240409Z 2406/2506 00000KT P6SM SKC FM241800 25012KT P6SM SCT025 SCT240 TEMPO 2422/2502 SCT080 BKN240 FM250500 28005KT P6SM SCT090 SCT240